Anamosa, IA

5:38 AM CST on March 04, 2015 (GMT -0600)
Monticello Regional | Change Station
CLOSE
Current Station
Airport
Location: Monticello,
Elevation: 850 ft
Nearby Weather Stations

Elev 850 ft 42.22 °N, 91.16 °W | Updated 23 minutes ago

Overcast
Overcast
10 °F
Feels Like -5 °F
N
13
Wind Variable Wind from NW
Gusts 18 mph

Today
High -- | Low -- °F
--% Chance of Precip.
Yesterday
High -- | Low -- °F
Precip. -- in
6:35 AM 5:58 PM
Waxing Gibbous, 99% visible
Pressure 30.12 in
Visibility 10.0 miles
Clouds Few 4700 ft
Overcast 7000 ft
Windchill -5 °F
Dew Point 0 °F
Humidity 62%
Rainfall 0.00 in
Snow Depth Not available.
UV 0 out of 12
Pollen .50 out of 12
Air Quality Not available.
Flu Activity Not available.
METAR KMXO 041115Z AUTO 32011G16KT 10SM FEW047 OVC070 M12/M18 A3012 RMK AO2

More Conditions Fewer Conditions

Pressure 30.12 in
Visibility 10.0 miles
Clouds Few 4700 ft
Overcast 7000 ft
Windchill -5 °F
Dew Point 0 °F
Humidity 62%
Rainfall 0.00 in
Snow Depth Not available.
UV 0 out of 12
Pollen .50 out of 12
Air Quality Not available.
Flu Activity Not available.
METAR KMXO 041115Z AUTO 32011G16KT 10SM FEW047 OVC070 M12/M18 A3012 RMK AO2

More Conditions Fewer Conditions

10-Day Weather Forecast

Almanac

Astronomy

Mar. 04, 2015 Rise Set
Actual Time
Civil Twilight
Nautical Twilight
Astronomical Twilight
Moon
Length of Visible Light
Length of Day
Tomorrow will be .
, % of the Moon is Illuminated

Today's Extremes

State Highs State Lows

Community

WunderPhotos

Upload Photos

1,802,435 photos uploaded!

WunderBlogs® & News

Nearby

Air Quality

  Air Quality AQ Index Pollutant
Not available.

Snow Depth

Station Depth Elevation

Earthquake Activity

City Distance Mag. Time & Date
Minimum magnitude displayed is 2.5.

Coastal Water Temperatures

Place Temperature

Nearby Weather Stations